sensor_id;sensor_type;location;lat;lon;timestamp;temperature;humidity
21275;DHT22;36472;52.170;20.884;2022-07-18T00:00:08;32.70;39.80
21275;DHT22;36472;52.170;20.884;2022-07-18T00:02:58;32.70;40.10
21275;DHT22;36472;52.170;20.884;2022-07-18T00:05:26;32.70;39.80
21275;DHT22;36472;52.170;20.884;2022-07-18T00:07:55;32.60;40.00
21275;DHT22;36472;52.170;20.884;2022-07-18T00:10:24;32.60;40.00
21275;DHT22;36472;52.170;20.884;2022-07-18T00:16:11;32.50;40.10
21275;DHT22;36472;52.170;20.884;2022-07-18T00:18:40;32.50;39.90
21275;DHT22;36472;52.170;20.884;2022-07-18T00:21:09;32.50;40.20
21275;DHT22;36472;52.170;20.884;2022-07-18T00:23:38;32.50;40.00
21275;DHT22;36472;52.170;20.884;2022-07-18T00:26:07;32.50;40.00
21275;DHT22;36472;52.170;20.884;2022-07-18T00:28:36;32.50;40.20
21275;DHT22;36472;52.170;20.884;2022-07-18T00:31:05;32.50;40.10
21275;DHT22;36472;52.170;20.884;2022-07-18T00:33:35;32.50;40.20
21275;DHT22;36472;52.170;20.884;2022-07-18T00:36:04;32.40;39.90
21275;DHT22;36472;52.170;20.884;2022-07-18T00:38:33;32.40;40.20
21275;DHT22;36472;52.170;20.884;2022-07-18T00:41:03;32.40;40.10
21275;DHT22;36472;52.170;20.884;2022-07-18T00:43:32;32.40;40.50
21275;DHT22;36472;52.170;20.884;2022-07-18T00:46:01;32.30;40.30
21275;DHT22;36472;52.170;20.884;2022-07-18T00:48:30;32.30;40.70
21275;DHT22;36472;52.170;20.884;2022-07-18T00:51:00;32.20;40.40
21275;DHT22;36472;52.170;20.884;2022-07-18T00:53:29;32.20;41.00
21275;DHT22;36472;52.170;20.884;2022-07-18T00:55:59;32.20;40.50
21275;DHT22;36472;52.170;20.884;2022-07-18T00:58:30;32.20;40.30
21275;DHT22;36472;52.170;20.884;2022-07-18T01:01:00;32.20;40.80
21275;DHT22;36472;52.170;20.884;2022-07-18T01:03:46;32.30;40.20
21275;DHT22;36472;52.170;20.884;2022-07-18T01:06:17;32.30;40.50
21275;DHT22;36472;52.170;20.884;2022-07-18T01:08:45;32.20;40.60
21275;DHT22;36472;52.170;20.884;2022-07-18T01:11:14;32.20;40.30
21275;DHT22;36472;52.170;20.884;2022-07-18T01:13:43;32.20;40.60
21275;DHT22;36472;52.170;20.884;2022-07-18T01:16:14;32.20;40.50
21275;DHT22;36472;52.170;20.884;2022-07-18T01:18:45;32.10;40.60
21275;DHT22;36472;52.170;20.884;2022-07-18T01:21:15;32.20;40.70
21275;DHT22;36472;52.170;20.884;2022-07-18T01:23:45;32.10;40.90
21275;DHT22;36472;52.170;20.884;2022-07-18T01:26:14;32.10;40.60
21275;DHT22;36472;52.170;20.884;2022-07-18T01:28:47;32.20;40.90
21275;DHT22;36472;52.170;20.884;2022-07-18T01:31:15;32.10;40.80
21275;DHT22;36472;52.170;20.884;2022-07-18T01:33:44;32.00;41.00
21275;DHT22;36472;52.170;20.884;2022-07-18T01:36:14;32.00;40.70
21275;DHT22;36472;52.170;20.884;2022-07-18T01:38:43;32.10;40.80
21275;DHT22;36472;52.170;20.884;2022-07-18T01:41:12;32.10;40.70
21275;DHT22;36472;52.170;20.884;2022-07-18T01:43:41;32.10;40.50
21275;DHT22;36472;52.170;20.884;2022-07-18T01:46:10;32.10;40.90
21275;DHT22;36472;52.170;20.884;2022-07-18T01:48:40;32.10;40.50
21275;DHT22;36472;52.170;20.884;2022-07-18T01:51:09;32.20;40.80
21275;DHT22;36472;52.170;20.884;2022-07-18T01:53:40;32.20;40.30
21275;DHT22;36472;52.170;20.884;2022-07-18T01:56:12;32.20;40.90
21275;DHT22;36472;52.170;20.884;2022-07-18T01:58:41;32.20;40.60
21275;DHT22;36472;52.170;20.884;2022-07-18T02:01:10;32.20;40.50
21275;DHT22;36472;52.170;20.884;2022-07-18T02:03:39;32.20;40.50
21275;DHT22;36472;52.170;20.884;2022-07-18T02:06:07;32.20;41.20
21275;DHT22;36472;52.170;20.884;2022-07-18T02:08:36;32.20;40.40
21275;DHT22;36472;52.170;20.884;2022-07-18T02:11:06;32.10;40.30
21275;DHT22;36472;52.170;20.884;2022-07-18T02:13:35;32.10;40.40
21275;DHT22;36472;52.170;20.884;2022-07-18T02:16:04;32.00;40.40
21275;DHT22;36472;52.170;20.884;2022-07-18T02:18:33;32.00;40.50
21275;DHT22;36472;52.170;20.884;2022-07-18T02:21:09;32.00;40.50
21275;DHT22;36472;52.170;20.884;2022-07-18T02:23:38;32.00;40.50
21275;DHT22;36472;52.170;20.884;2022-07-18T02:26:09;32.00;40.50
21275;DHT22;36472;52.170;20.884;2022-07-18T02:28:38;32.00;40.50
21275;DHT22;36472;52.170;20.884;2022-07-18T02:31:07;32.00;40.50
21275;DHT22;36472;52.170;20.884;2022-07-18T02:33:36;32.00;40.80
21275;DHT22;36472;52.170;20.884;2022-07-18T02:36:04;32.00;41.10
21275;DHT22;36472;52.170;20.884;2022-07-18T02:38:33;32.00;40.70
21275;DHT22;36472;52.170;20.884;2022-07-18T02:41:02;32.00;40.70
21275;DHT22;36472;52.170;20.884;2022-07-18T02:43:32;31.90;40.80
21275;DHT22;36472;52.170;20.884;2022-07-18T02:46:02;32.00;40.90
21275;DHT22;36472;52.170;20.884;2022-07-18T02:48:30;31.90;40.70
21275;DHT22;36472;52.170;20.884;2022-07-18T02:50:59;31.90;40.30
21275;DHT22;36472;52.170;20.884;2022-07-18T02:53:28;31.90;40.70
21275;DHT22;36472;52.170;20.884;2022-07-18T02:55:56;32.00;40.80
21275;DHT22;36472;52.170;20.884;2022-07-18T02:58:25;31.90;40.50
21275;DHT22;36472;52.170;20.884;2022-07-18T03:00:56;32.00;40.60
21275;DHT22;36472;52.170;20.884;2022-07-18T03:03:24;32.00;41.00
21275;DHT22;36472;52.170;20.884;2022-07-18T03:05:53;32.00;40.90
21275;DHT22;36472;52.170;20.884;2022-07-18T03:08:22;32.00;40.60
21275;DHT22;36472;52.170;20.884;2022-07-18T03:10:51;32.00;40.40
21275;DHT22;36472;52.170;20.884;2022-07-18T03:13:20;32.00;40.20
21275;DHT22;36472;52.170;20.884;2022-07-18T03:15:48;32.10;40.50
21275;DHT22;36472;52.170;20.884;2022-07-18T03:18:18;32.00;40.30
21275;DHT22;36472;52.170;20.884;2022-07-18T03:20:49;32.00;40.50
21275;DHT22;36472;52.170;20.884;2022-07-18T03:23:18;32.10;40.30
21275;DHT22;36472;52.170;20.884;2022-07-18T03:25:47;32.10;40.70
21275;DHT22;36472;52.170;20.884;2022-07-18T03:28:15;32.20;40.10
21275;DHT22;36472;52.170;20.884;2022-07-18T03:30:44;32.00;40.80
21275;DHT22;36472;52.170;20.884;2022-07-18T03:33:13;32.00;40.30
21275;DHT22;36472;52.170;20.884;2022-07-18T03:35:43;31.90;40.20
21275;DHT22;36472;52.170;20.884;2022-07-18T03:38:12;31.80;40.80
21275;DHT22;36472;52.170;20.884;2022-07-18T03:40:40;31.80;40.80
21275;DHT22;36472;52.170;20.884;2022-07-18T03:43:09;31.90;40.50
21275;DHT22;36472;52.170;20.884;2022-07-18T03:45:38;31.80;40.80
21275;DHT22;36472;52.170;20.884;2022-07-18T03:48:12;31.80;40.70
21275;DHT22;36472;52.170;20.884;2022-07-18T03:50:42;31.80;40.20
21275;DHT22;36472;52.170;20.884;2022-07-18T03:53:11;32.10;40.80
21275;DHT22;36472;52.170;20.884;2022-07-18T03:55:40;31.90;40.90
21275;DHT22;36472;52.170;20.884;2022-07-18T03:58:09;31.80;41.00
21275;DHT22;36472;52.170;20.884;2022-07-18T04:00:38;31.80;40.50
21275;DHT22;36472;52.170;20.884;2022-07-18T04:03:07;31.60;40.80
21275;DHT22;36472;52.170;20.884;2022-07-18T04:05:36;31.70;41.00
21275;DHT22;36472;52.170;20.884;2022-07-18T04:08:06;31.60;40.80
21275;DHT22;36472;52.170;20.884;2022-07-18T04:10:35;31.60;41.10
21275;DHT22;36472;52.170;20.884;2022-07-18T04:13:07;31.50;41.10
21275;DHT22;36472;52.170;20.884;2022-07-18T04:15:37;31.40;41.20
21275;DHT22;36472;52.170;20.884;2022-07-18T04:18:07;31.60;41.10
21275;DHT22;36472;52.170;20.884;2022-07-18T04:20:37;31.50;41.10
21275;DHT22;36472;52.170;20.884;2022-07-18T04:23:09;31.50;41.60
21275;DHT22;36472;52.170;20.884;2022-07-18T04:25:40;31.30;41.60
21275;DHT22;36472;52.170;20.884;2022-07-18T04:28:12;31.40;41.70
21275;DHT22;36472;52.170;20.884;2022-07-18T04:30:42;31.60;41.10
21275;DHT22;36472;52.170;20.884;2022-07-18T04:33:12;31.60;41.20
21275;DHT22;36472;52.170;20.884;2022-07-18T04:35:41;31.50;41.50
21275;DHT22;36472;52.170;20.884;2022-07-18T04:38:11;31.70;41.30
21275;DHT22;36472;52.170;20.884;2022-07-18T04:40:40;31.60;41.50
21275;DHT22;36472;52.170;20.884;2022-07-18T04:43:09;31.70;41.50
21275;DHT22;36472;52.170;20.884;2022-07-18T04:45:38;31.70;41.80
21275;DHT22;36472;52.170;20.884;2022-07-18T04:48:06;32.00;41.20
21275;DHT22;36472;52.170;20.884;2022-07-18T04:50:35;31.90;41.40
21275;DHT22;36472;52.170;20.884;2022-07-18T04:53:04;32.00;42.00
21275;DHT22;36472;52.170;20.884;2022-07-18T04:55:34;32.20;41.20
21275;DHT22;36472;52.170;20.884;2022-07-18T04:58:03;32.40;40.80
21275;DHT22;36472;52.170;20.884;2022-07-18T05:00:31;32.50;41.00
21275;DHT22;36472;52.170;20.884;2022-07-18T05:03:00;32.50;40.60
21275;DHT22;36472;52.170;20.884;2022-07-18T05:05:29;32.30;40.80
21275;DHT22;36472;52.170;20.884;2022-07-18T05:08:04;32.30;40.90
21275;DHT22;36472;52.170;20.884;2022-07-18T05:10:35;32.30;41.10
21275;DHT22;36472;52.170;20.884;2022-07-18T05:13:04;32.40;40.90
21275;DHT22;36472;52.170;20.884;2022-07-18T05:15:32;32.60;41.30
21275;DHT22;36472;52.170;20.884;2022-07-18T05:18:01;32.70;40.90
21275;DHT22;36472;52.170;20.884;2022-07-18T05:20:30;32.80;40.60
21275;DHT22;36472;52.170;20.884;2022-07-18T05:22:59;32.90;40.40
21275;DHT22;36472;52.170;20.884;2022-07-18T05:25:28;32.90;39.90
21275;DHT22;36472;52.170;20.884;2022-07-18T05:27:58;33.00;40.30
21275;DHT22;36472;52.170;20.884;2022-07-18T05:30:27;33.20;40.40
21275;DHT22;36472;52.170;20.884;2022-07-18T05:32:56;33.20;40.40
21275;DHT22;36472;52.170;20.884;2022-07-18T05:35:25;33.20;40.30
21275;DHT22;36472;52.170;20.884;2022-07-18T05:37:54;33.40;39.80
21275;DHT22;36472;52.170;20.884;2022-07-18T05:40:23;33.50;39.60
21275;DHT22;36472;52.170;20.884;2022-07-18T05:42:51;33.40;40.30
21275;DHT22;36472;52.170;20.884;2022-07-18T05:45:23;33.50;39.80
21275;DHT22;36472;52.170;20.884;2022-07-18T05:47:53;33.60;39.80
21275;DHT22;36472;52.170;20.884;2022-07-18T05:50:22;33.70;40.40
21275;DHT22;36472;52.170;20.884;2022-07-18T05:52:53;33.50;40.80
21275;DHT22;36472;52.170;20.884;2022-07-18T05:55:22;33.40;40.80
21275;DHT22;36472;52.170;20.884;2022-07-18T05:57:51;33.50;40.30
21275;DHT22;36472;52.170;20.884;2022-07-18T06:00:22;33.50;39.80
21275;DHT22;36472;52.170;20.884;2022-07-18T06:02:51;33.70;40.30
21275;DHT22;36472;52.170;20.884;2022-07-18T06:05:20;33.70;39.60
21275;DHT22;36472;52.170;20.884;2022-07-18T06:07:53;33.70;39.50
21275;DHT22;36472;52.170;20.884;2022-07-18T06:10:22;33.70;41.10
21275;DHT22;36472;52.170;20.884;2022-07-18T06:12:53;33.90;40.40
21275;DHT22;36472;52.170;20.884;2022-07-18T06:15:23;33.80;40.50
21275;DHT22;36472;52.170;20.884;2022-07-18T06:17:52;33.90;40.50
21275;DHT22;36472;52.170;20.884;2022-07-18T06:20:21;34.00;40.90
21275;DHT22;36472;52.170;20.884;2022-07-18T06:22:50;34.00;40.10
21275;DHT22;36472;52.170;20.884;2022-07-18T06:25:19;34.40;39.60
21275;DHT22;36472;52.170;20.884;2022-07-18T06:27:47;34.20;39.80
21275;DHT22;36472;52.170;20.884;2022-07-18T06:30:16;34.10;38.80
21275;DHT22;36472;52.170;20.884;2022-07-18T06:32:46;34.10;39.70
21275;DHT22;36472;52.170;20.884;2022-07-18T06:35:15;34.20;40.60
21275;DHT22;36472;52.170;20.884;2022-07-18T06:37:44;34.20;40.00
21275;DHT22;36472;52.170;20.884;2022-07-18T06:40:13;34.30;39.80
21275;DHT22;36472;52.170;20.884;2022-07-18T06:42:42;34.50;39.30
21275;DHT22;36472;52.170;20.884;2022-07-18T06:45:11;34.50;38.80
21275;DHT22;36472;52.170;20.884;2022-07-18T06:47:42;34.40;39.30
21275;DHT22;36472;52.170;20.884;2022-07-18T06:50:14;34.20;39.50
21275;DHT22;36472;52.170;20.884;2022-07-18T06:52:44;34.20;39.80
21275;DHT22;36472;52.170;20.884;2022-07-18T06:55:13;34.30;39.40
21275;DHT22;36472;52.170;20.884;2022-07-18T06:57:43;34.30;39.80
21275;DHT22;36472;52.170;20.884;2022-07-18T07:00:14;34.10;40.20
21275;DHT22;36472;52.170;20.884;2022-07-18T07:02:45;34.50;39.60
21275;DHT22;36472;52.170;20.884;2022-07-18T07:05:19;34.30;39.90
21275;DHT22;36472;52.170;20.884;2022-07-18T07:07:49;34.40;40.70
21275;DHT22;36472;52.170;20.884;2022-07-18T07:10:18;34.60;39.60
21275;DHT22;36472;52.170;20.884;2022-07-18T07:12:49;34.50;39.50
21275;DHT22;36472;52.170;20.884;2022-07-18T07:15:20;34.70;40.20
21275;DHT22;36472;52.170;20.884;2022-07-18T07:17:51;34.90;39.80
21275;DHT22;36472;52.170;20.884;2022-07-18T07:20:22;35.10;39.20
21275;DHT22;36472;52.170;20.884;2022-07-18T07:22:52;35.20;38.80
21275;DHT22;36472;52.170;20.884;2022-07-18T07:25:23;35.00;39.20
21275;DHT22;36472;52.170;20.884;2022-07-18T07:27:54;34.60;39.70
21275;DHT22;36472;52.170;20.884;2022-07-18T07:30:23;34.80;40.00
21275;DHT22;36472;52.170;20.884;2022-07-18T07:32:52;34.90;39.50
21275;DHT22;36472;52.170;20.884;2022-07-18T07:35:22;34.90;40.60
21275;DHT22;36472;52.170;20.884;2022-07-18T07:37:53;34.80;40.20
21275;DHT22;36472;52.170;20.884;2022-07-18T07:40:23;34.90;39.80
21275;DHT22;36472;52.170;20.884;2022-07-18T07:43:04;34.10;39.70
21275;DHT22;36472;52.170;20.884;2022-07-18T07:45:35;34.40;41.60
21275;DHT22;36472;52.170;20.884;2022-07-18T07:48:06;34.80;39.90
21275;DHT22;36472;52.170;20.884;2022-07-18T07:50:36;34.70;40.70
21275;DHT22;36472;52.170;20.884;2022-07-18T07:53:05;34.80;40.00
21275;DHT22;36472;52.170;20.884;2022-07-18T07:55:34;35.00;41.20
21275;DHT22;36472;52.170;20.884;2022-07-18T07:58:03;35.30;40.00
21275;DHT22;36472;52.170;20.884;2022-07-18T08:00:32;35.40;39.40
21275;DHT22;36472;52.170;20.884;2022-07-18T08:03:02;35.00;40.30
21275;DHT22;36472;52.170;20.884;2022-07-18T08:05:35;35.40;40.00
21275;DHT22;36472;52.170;20.884;2022-07-18T08:08:06;35.60;38.80
21275;DHT22;36472;52.170;20.884;2022-07-18T08:10:35;35.70;38.80
21275;DHT22;36472;52.170;20.884;2022-07-18T08:13:11;35.70;38.80
21275;DHT22;36472;52.170;20.884;2022-07-18T08:15:41;35.70;38.70
21275;DHT22;36472;52.170;20.884;2022-07-18T08:18:11;35.80;38.70
21275;DHT22;36472;52.170;20.884;2022-07-18T08:20:41;35.40;39.50
21275;DHT22;36472;52.170;20.884;2022-07-18T08:23:11;35.40;39.30
21275;DHT22;36472;52.170;20.884;2022-07-18T08:25:41;35.80;39.50
21275;DHT22;36472;52.170;20.884;2022-07-18T08:28:12;35.60;39.30
21275;DHT22;36472;52.170;20.884;2022-07-18T08:30:41;35.50;39.40
21275;DHT22;36472;52.170;20.884;2022-07-18T08:33:10;35.90;39.50
21275;DHT22;36472;52.170;20.884;2022-07-18T08:35:39;36.10;39.10
21275;DHT22;36472;52.170;20.884;2022-07-18T08:38:09;36.00;39.50
21275;DHT22;36472;52.170;20.884;2022-07-18T08:40:38;35.90;39.40
21275;DHT22;36472;52.170;20.884;2022-07-18T08:43:07;36.20;38.90
21275;DHT22;36472;52.170;20.884;2022-07-18T08:45:49;36.20;39.00
21275;DHT22;36472;52.170;20.884;2022-07-18T08:48:22;36.10;39.40
21275;DHT22;36472;52.170;20.884;2022-07-18T08:50:51;36.10;38.80
21275;DHT22;36472;52.170;20.884;2022-07-18T08:53:22;36.00;39.30
21275;DHT22;36472;52.170;20.884;2022-07-18T08:55:51;35.70;39.10
21275;DHT22;36472;52.170;20.884;2022-07-18T08:58:20;35.70;39.20
21275;DHT22;36472;52.170;20.884;2022-07-18T09:01:09;35.80;40.00
21275;DHT22;36472;52.170;20.884;2022-07-18T09:03:38;36.10;38.80
21275;DHT22;36472;52.170;20.884;2022-07-18T09:06:08;35.30;39.60
21275;DHT22;36472;52.170;20.884;2022-07-18T09:11:26;35.90;40.60
21275;DHT22;36472;52.170;20.884;2022-07-18T09:14:31;36.50;39.60
21275;DHT22;36472;52.170;20.884;2022-07-18T09:17:08;37.00;37.50
21275;DHT22;36472;52.170;20.884;2022-07-18T09:19:41;37.10;37.20
21275;DHT22;36472;52.170;20.884;2022-07-18T09:22:16;37.50;37.80
21275;DHT22;36472;52.170;20.884;2022-07-18T09:25:10;37.50;37.30
21275;DHT22;36472;52.170;20.884;2022-07-18T09:27:41;37.80;36.40
21275;DHT22;36472;52.170;20.884;2022-07-18T09:30:24;37.70;37.00
21275;DHT22;36472;52.170;20.884;2022-07-18T09:33:04;37.90;37.30
21275;DHT22;36472;52.170;20.884;2022-07-18T09:35:36;37.80;37.90
21275;DHT22;36472;52.170;20.884;2022-07-18T09:38:12;37.70;36.50
21275;DHT22;36472;52.170;20.884;2022-07-18T09:40:46;38.10;37.20
21275;DHT22;36472;52.170;20.884;2022-07-18T09:43:17;38.20;37.00
21275;DHT22;36472;52.170;20.884;2022-07-18T09:45:49;37.70;36.70
21275;DHT22;36472;52.170;20.884;2022-07-18T09:48:20;38.00;37.40
21275;DHT22;36472;52.170;20.884;2022-07-18T09:50:53;38.30;36.20
21275;DHT22;36472;52.170;20.884;2022-07-18T09:53:24;38.60;37.30
21275;DHT22;36472;52.170;20.884;2022-07-18T09:56:04;39.10;34.70
21275;DHT22;36472;52.170;20.884;2022-07-18T09:58:36;39.10;35.40
21275;DHT22;36472;52.170;20.884;2022-07-18T10:01:08;38.80;35.60
21275;DHT22;36472;52.170;20.884;2022-07-18T10:03:37;38.80;36.30
21275;DHT22;36472;52.170;20.884;2022-07-18T10:06:07;38.70;35.50
21275;DHT22;36472;52.170;20.884;2022-07-18T10:08:37;38.50;36.40
21275;DHT22;36472;52.170;20.884;2022-07-18T10:11:08;38.20;37.00
21275;DHT22;36472;52.170;20.884;2022-07-18T10:13:38;37.40;36.40
21275;DHT22;36472;52.170;20.884;2022-07-18T10:16:07;36.90;38.00
21275;DHT22;36472;52.170;20.884;2022-07-18T10:18:36;37.00;37.80
21275;DHT22;36472;52.170;20.884;2022-07-18T10:21:08;37.00;38.10
21275;DHT22;36472;52.170;20.884;2022-07-18T10:23:39;37.30;38.70
21275;DHT22;36472;52.170;20.884;2022-07-18T10:26:16;37.70;36.80
21275;DHT22;36472;52.170;20.884;2022-07-18T10:29:09;37.60;37.70
21275;DHT22;36472;52.170;20.884;2022-07-18T10:32:02;38.00;36.40
21275;DHT22;36472;52.170;20.884;2022-07-18T10:34:35;38.00;36.80
21275;DHT22;36472;52.170;20.884;2022-07-18T10:37:08;38.10;36.50
21275;DHT22;36472;52.170;20.884;2022-07-18T10:39:40;38.30;36.20
21275;DHT22;36472;52.170;20.884;2022-07-18T10:42:19;38.50;36.80
21275;DHT22;36472;52.170;20.884;2022-07-18T10:44:51;38.80;36.20
21275;DHT22;36472;52.170;20.884;2022-07-18T10:47:20;38.30;35.90
21275;DHT22;36472;52.170;20.884;2022-07-18T10:50:07;38.40;36.60
21275;DHT22;36472;52.170;20.884;2022-07-18T10:52:56;38.50;35.80
21275;DHT22;36472;52.170;20.884;2022-07-18T10:55:30;38.30;36.90
21275;DHT22;36472;52.170;20.884;2022-07-18T10:58:18;38.40;35.80
21275;DHT22;36472;52.170;20.884;2022-07-18T11:00:53;38.20;35.90
21275;DHT22;36472;52.170;20.884;2022-07-18T11:03:30;38.00;37.00
21275;DHT22;36472;52.170;20.884;2022-07-18T11:05:59;38.00;36.80
21275;DHT22;36472;52.170;20.884;2022-07-18T11:08:30;37.90;36.90
21275;DHT22;36472;52.170;20.884;2022-07-18T11:11:18;37.90;36.60
21275;DHT22;36472;52.170;20.884;2022-07-18T11:13:48;38.00;37.00
21275;DHT22;36472;52.170;20.884;2022-07-18T11:16:22;38.00;37.70
21275;DHT22;36472;52.170;20.884;2022-07-18T11:19:18;38.20;36.10
21275;DHT22;36472;52.170;20.884;2022-07-18T11:21:58;38.20;37.00
21275;DHT22;36472;52.170;20.884;2022-07-18T11:24:27;38.10;37.30
21275;DHT22;36472;52.170;20.884;2022-07-18T11:26:56;38.40;36.60
21275;DHT22;36472;52.170;20.884;2022-07-18T11:29:27;38.20;35.90
21275;DHT22;36472;52.170;20.884;2022-07-18T11:31:57;37.90;37.70
21275;DHT22;36472;52.170;20.884;2022-07-18T11:34:27;38.00;37.90
21275;DHT22;36472;52.170;20.884;2022-07-18T11:37:08;38.10;36.70
21275;DHT22;36472;52.170;20.884;2022-07-18T11:39:40;38.10;35.90
21275;DHT22;36472;52.170;20.884;2022-07-18T11:42:10;38.10;36.80
21275;DHT22;36472;52.170;20.884;2022-07-18T11:44:41;38.10;37.20
21275;DHT22;36472;52.170;20.884;2022-07-18T11:47:11;37.90;36.80
21275;DHT22;36472;52.170;20.884;2022-07-18T11:49:54;37.90;37.40
21275;DHT22;36472;52.170;20.884;2022-07-18T11:52:24;38.00;37.10
21275;DHT22;36472;52.170;20.884;2022-07-18T11:54:59;38.40;36.00
21275;DHT22;36472;52.170;20.884;2022-07-18T11:57:29;38.30;36.70
21275;DHT22;36472;52.170;20.884;2022-07-18T12:00:14;38.20;36.60
21275;DHT22;36472;52.170;20.884;2022-07-18T12:03:06;38.10;37.20
21275;DHT22;36472;52.170;20.884;2022-07-18T12:05:42;37.90;36.80
21275;DHT22;36472;52.170;20.884;2022-07-18T12:08:31;37.90;36.50
21275;DHT22;36472;52.170;20.884;2022-07-18T12:11:10;37.80;37.50
21275;DHT22;36472;52.170;20.884;2022-07-18T12:13:50;38.00;38.30
21275;DHT22;36472;52.170;20.884;2022-07-18T12:16:34;38.00;38.30
21275;DHT22;36472;52.170;20.884;2022-07-18T12:19:07;38.10;37.80
21275;DHT22;36472;52.170;20.884;2022-07-18T12:21:49;38.20;37.70
21275;DHT22;36472;52.170;20.884;2022-07-18T12:24:23;38.20;37.30
21275;DHT22;36472;52.170;20.884;2022-07-18T12:27:09;38.30;36.30
21275;DHT22;36472;52.170;20.884;2022-07-18T12:30:06;38.30;36.70
21275;DHT22;36472;52.170;20.884;2022-07-18T12:32:46;38.50;36.10
21275;DHT22;36472;52.170;20.884;2022-07-18T12:35:20;38.20;37.00
21275;DHT22;36472;52.170;20.884;2022-07-18T12:37:56;38.30;36.40
21275;DHT22;36472;52.170;20.884;2022-07-18T12:40:39;38.30;36.40
21275;DHT22;36472;52.170;20.884;2022-07-18T12:43:11;38.40;37.50
21275;DHT22;36472;52.170;20.884;2022-07-18T12:45:42;37.90;36.50
21275;DHT22;36472;52.170;20.884;2022-07-18T12:48:13;38.10;36.40
21275;DHT22;36472;52.170;20.884;2022-07-18T12:50:43;38.10;36.70
21275;DHT22;36472;52.170;20.884;2022-07-18T12:53:13;38.30;36.20
21275;DHT22;36472;52.170;20.884;2022-07-18T12:55:42;38.20;36.10
21275;DHT22;36472;52.170;20.884;2022-07-18T12:58:10;38.20;36.50
21275;DHT22;36472;52.170;20.884;2022-07-18T13:00:39;38.30;36.00
21275;DHT22;36472;52.170;20.884;2022-07-18T13:03:08;38.30;36.20
21275;DHT22;36472;52.170;20.884;2022-07-18T13:05:38;38.30;35.60
21275;DHT22;36472;52.170;20.884;2022-07-18T13:08:07;38.30;35.80
21275;DHT22;36472;52.170;20.884;2022-07-18T13:10:37;38.20;35.60
21275;DHT22;36472;52.170;20.884;2022-07-18T13:13:08;38.10;35.80
21275;DHT22;36472;52.170;20.884;2022-07-18T13:15:38;38.00;37.00
21275;DHT22;36472;52.170;20.884;2022-07-18T13:18:06;38.00;36.40
21275;DHT22;36472;52.170;20.884;2022-07-18T13:20:35;37.90;36.40
21275;DHT22;36472;52.170;20.884;2022-07-18T13:23:06;37.80;36.40
21275;DHT22;36472;52.170;20.884;2022-07-18T13:25:37;37.60;37.60
21275;DHT22;36472;52.170;20.884;2022-07-18T13:28:06;37.50;37.10
21275;DHT22;36472;52.170;20.884;2022-07-18T13:30:34;37.80;36.90
21275;DHT22;36472;52.170;20.884;2022-07-18T13:33:04;38.00;37.60
21275;DHT22;36472;52.170;20.884;2022-07-18T13:35:33;38.20;35.80
21275;DHT22;36472;52.170;20.884;2022-07-18T13:38:02;38.10;35.50
21275;DHT22;36472;52.170;20.884;2022-07-18T13:40:32;38.20;35.50
21275;DHT22;36472;52.170;20.884;2022-07-18T13:43:01;38.30;35.40
21275;DHT22;36472;52.170;20.884;2022-07-18T13:45:30;38.00;35.30
21275;DHT22;36472;52.170;20.884;2022-07-18T13:47:59;38.10;35.80
21275;DHT22;36472;52.170;20.884;2022-07-18T13:50:28;37.50;36.00
21275;DHT22;36472;52.170;20.884;2022-07-18T13:52:56;37.80;36.30
21275;DHT22;36472;52.170;20.884;2022-07-18T13:55:25;38.00;36.40
21275;DHT22;36472;52.170;20.884;2022-07-18T13:57:56;38.00;35.80
21275;DHT22;36472;52.170;20.884;2022-07-18T14:00:24;38.10;35.20
21275;DHT22;36472;52.170;20.884;2022-07-18T14:02:53;37.70;35.00
21275;DHT22;36472;52.170;20.884;2022-07-18T14:05:22;37.80;35.10
21275;DHT22;36472;52.170;20.884;2022-07-18T14:07:52;37.90;35.40
21275;DHT22;36472;52.170;20.884;2022-07-18T14:10:21;37.80;35.00
21275;DHT22;36472;52.170;20.884;2022-07-18T14:12:50;37.90;34.80
21275;DHT22;36472;52.170;20.884;2022-07-18T14:15:20;38.20;34.40
21275;DHT22;36472;52.170;20.884;2022-07-18T14:17:48;38.30;35.40
21275;DHT22;36472;52.170;20.884;2022-07-18T14:20:18;38.20;33.60
21275;DHT22;36472;52.170;20.884;2022-07-18T14:22:48;38.10;34.00
21275;DHT22;36472;52.170;20.884;2022-07-18T14:25:18;38.10;33.50
21275;DHT22;36472;52.170;20.884;2022-07-18T14:27:46;38.10;34.50
21275;DHT22;36472;52.170;20.884;2022-07-18T14:30:16;38.20;34.20
21275;DHT22;36472;52.170;20.884;2022-07-18T14:32:47;38.30;34.50
21275;DHT22;36472;52.170;20.884;2022-07-18T14:35:17;38.60;33.60
21275;DHT22;36472;52.170;20.884;2022-07-18T14:37:46;38.60;33.90
21275;DHT22;36472;52.170;20.884;2022-07-18T14:40:15;38.60;34.00
21275;DHT22;36472;52.170;20.884;2022-07-18T14:42:44;38.70;34.00
21275;DHT22;36472;52.170;20.884;2022-07-18T14:45:13;38.60;34.10
21275;DHT22;36472;52.170;20.884;2022-07-18T14:47:41;38.70;34.60
21275;DHT22;36472;52.170;20.884;2022-07-18T14:50:12;38.70;34.80
21275;DHT22;36472;52.170;20.884;2022-07-18T14:52:41;38.80;34.00
21275;DHT22;36472;52.170;20.884;2022-07-18T14:55:09;38.70;33.70
21275;DHT22;36472;52.170;20.884;2022-07-18T14:57:39;38.60;34.20
21275;DHT22;36472;52.170;20.884;2022-07-18T15:00:09;38.60;33.10
21275;DHT22;36472;52.170;20.884;2022-07-18T15:02:38;38.60;34.80
21275;DHT22;36472;52.170;20.884;2022-07-18T15:05:08;38.30;34.10
21275;DHT22;36472;52.170;20.884;2022-07-18T15:07:39;38.30;32.90
21275;DHT22;36472;52.170;20.884;2022-07-18T15:10:09;38.60;34.60
21275;DHT22;36472;52.170;20.884;2022-07-18T15:12:38;38.90;33.50
21275;DHT22;36472;52.170;20.884;2022-07-18T15:15:08;38.70;33.00
21275;DHT22;36472;52.170;20.884;2022-07-18T15:17:37;38.60;34.00
21275;DHT22;36472;52.170;20.884;2022-07-18T15:20:07;38.50;35.60
21275;DHT22;36472;52.170;20.884;2022-07-18T15:22:36;38.50;34.70
21275;DHT22;36472;52.170;20.884;2022-07-18T15:25:08;38.50;35.00
21275;DHT22;36472;52.170;20.884;2022-07-18T15:27:37;38.80;33.70
21275;DHT22;36472;52.170;20.884;2022-07-18T15:30:07;38.80;34.30
21275;DHT22;36472;52.170;20.884;2022-07-18T15:32:56;38.60;34.50
21275;DHT22;36472;52.170;20.884;2022-07-18T15:35:25;38.90;34.00
21275;DHT22;36472;52.170;20.884;2022-07-18T15:37:54;38.70;35.00
21275;DHT22;36472;52.170;20.884;2022-07-18T15:40:25;38.80;34.90
21275;DHT22;36472;52.170;20.884;2022-07-18T15:42:53;38.70;35.00
21275;DHT22;36472;52.170;20.884;2022-07-18T15:45:22;38.80;34.60